Airfield :
LOGIN :

Register | Disclaimer

   EN    FR    IT 

 










Legend :    VFR   Marginal VFR   IFR   Intensive IFR   Very Intensive IFR
Visi :
Ceiling :
>= 8 km
>= 3000ft
5 to 8 km
1000 to 3000 ft
1500m to 5 km
500 to 1000 ft
800 to 1500m
200 to 500 ft
< 800m
< 200 ft
Symbols :   Thunderstorms  Fog  Heavy snow  Heavy precipitations  Wind > 20 kt
SIGMETs :     Misc.  Thunderstorms  Icing  Turbulence  Mountain Waves  Volcanic Ashes






- Airport Elevation : 1411 ft
- IATA code : ZHI


LSZG - Grenchen

CURRENT METAR :
  • 280820Z 24010KT 2300 -RA OVC005 04/04 Q1011 NOSIG

EXPIRED METARs :
  • 280750Z 24012KT 1800 -RA OVC006 04/04 Q1011 NOSIG
  • 280720Z 23006KT 1100 -RA BKN004 BKN006 BKN015 02/02 Q1011 NOSIG
  • 280650Z 23004KT 2300 -RA OVC005 02/02 Q1012 RERASN NOSIG
  • 280620Z AUTO 23005KT 2900 RA BKN007 BKN009 02/02 Q1012
  • 280550Z AUTO 22004KT 2100 -RA OVC006 02/02 Q1013

TAF TAF LSZG
Valid from the 28 at 06:00 until the 28 at 15:00 UTC


280525Z 2806/2815 VRB02KT 4000 -RA OVC006
PROB30 2806/2808 0700 FG VV004
BECMG 2806/2809 24012KT RA BKN012
TEMPO 2806/2812 2500 +RA BKN009
TEMPO 2812/2815 24015G25KT
ATIS : +41 32 396 96 33



MET'MAP, your aeronautical weather chart ! - Copyright ORBIFLY December 2007 - Disclaimer

ORBIFLY MET'MAP TEAM :

Programming & Development : Alexandra Zaïnal
Concept & original design : Baudouin d'Aumeries
Assistance for programming : Marc-Olivier Méhu
Technical & hardware support : Manuel Goepfert

Contact : metmap@orbifly.com




SOURCES & CREDITS :

   NOAA